sensor_id;sensor_type;location;lat;lon;timestamp;P1;durP1;ratioP1;P2;durP2;ratioP2
33279;SDS011;20403;43.114;12.434;2022-08-19T00:01:39;35.05;;;8.27;;
33279;SDS011;20403;43.114;12.434;2022-08-19T00:04:07;51.10;;;9.38;;
33279;SDS011;20403;43.114;12.434;2022-08-19T00:06:35;39.35;;;7.97;;
33279;SDS011;20403;43.114;12.434;2022-08-19T00:09:02;41.05;;;7.93;;
33279;SDS011;20403;43.114;12.434;2022-08-19T00:11:29;37.55;;;8.38;;
33279;SDS011;20403;43.114;12.434;2022-08-19T00:13:56;32.45;;;8.32;;
33279;SDS011;20403;43.114;12.434;2022-08-19T00:16:22;32.88;;;7.75;;
33279;SDS011;20403;43.114;12.434;2022-08-19T00:18:49;41.97;;;8.57;;
33279;SDS011;20403;43.114;12.434;2022-08-19T00:21:15;33.08;;;7.20;;
33279;SDS011;20403;43.114;12.434;2022-08-19T00:23:41;36.28;;;8.18;;
33279;SDS011;20403;43.114;12.434;2022-08-19T00:26:08;34.10;;;7.25;;
33279;SDS011;20403;43.114;12.434;2022-08-19T00:28:34;32.70;;;7.88;;
33279;SDS011;20403;43.114;12.434;2022-08-19T00:31:01;32.45;;;7.65;;
33279;SDS011;20403;43.114;12.434;2022-08-19T00:33:28;43.88;;;7.88;;
33279;SDS011;20403;43.114;12.434;2022-08-19T00:35:57;35.50;;;7.68;;
33279;SDS011;20403;43.114;12.434;2022-08-19T00:38:23;35.20;;;7.40;;
33279;SDS011;20403;43.114;12.434;2022-08-19T00:40:49;30.13;;;7.50;;
33279;SDS011;20403;43.114;12.434;2022-08-19T00:43:17;30.23;;;7.68;;
33279;SDS011;20403;43.114;12.434;2022-08-19T00:45:44;39.00;;;8.50;;
33279;SDS011;20403;43.114;12.434;2022-08-19T00:48:10;31.88;;;7.63;;
33279;SDS011;20403;43.114;12.434;2022-08-19T00:50:36;29.08;;;6.55;;
33279;SDS011;20403;43.114;12.434;2022-08-19T00:53:05;21.83;;;4.72;;
33279;SDS011;20403;43.114;12.434;2022-08-19T00:55:31;15.10;;;3.72;;
33279;SDS011;20403;43.114;12.434;2022-08-19T00:58:00;13.07;;;3.20;;
33279;SDS011;20403;43.114;12.434;2022-08-19T01:00:29;8.98;;;2.95;;
33279;SDS011;20403;43.114;12.434;2022-08-19T01:02:54;13.63;;;3.40;;
33279;SDS011;20403;43.114;12.434;2022-08-19T01:05:22;14.73;;;3.60;;
33279;SDS011;20403;43.114;12.434;2022-08-19T01:07:52;13.65;;;3.05;;
33279;SDS011;20403;43.114;12.434;2022-08-19T01:10:20;13.23;;;2.95;;
33279;SDS011;20403;43.114;12.434;2022-08-19T01:12:49;12.05;;;3.28;;
33279;SDS011;20403;43.114;12.434;2022-08-19T01:15:16;12.48;;;3.17;;
33279;SDS011;20403;43.114;12.434;2022-08-19T01:17:45;17.08;;;3.33;;
33279;SDS011;20403;43.114;12.434;2022-08-19T01:20:16;13.43;;;3.17;;
33279;SDS011;20403;43.114;12.434;2022-08-19T01:22:54;14.07;;;3.38;;
33279;SDS011;20403;43.114;12.434;2022-08-19T01:25:24;12.40;;;3.17;;
33279;SDS011;20403;43.114;12.434;2022-08-19T01:27:57;13.20;;;3.53;;
33279;SDS011;20403;43.114;12.434;2022-08-19T01:30:27;13.32;;;3.20;;
33279;SDS011;20403;43.114;12.434;2022-08-19T01:32:57;15.60;;;3.15;;
33279;SDS011;20403;43.114;12.434;2022-08-19T01:35:25;17.55;;;4.13;;
33279;SDS011;20403;43.114;12.434;2022-08-19T01:37:56;14.13;;;3.42;;
33279;SDS011;20403;43.114;12.434;2022-08-19T01:40:25;10.57;;;2.90;;
33279;SDS011;20403;43.114;12.434;2022-08-19T01:42:54;8.40;;;2.65;;
33279;SDS011;20403;43.114;12.434;2022-08-19T01:45:20;10.38;;;2.90;;
33279;SDS011;20403;43.114;12.434;2022-08-19T01:47:48;12.75;;;2.53;;
33279;SDS011;20403;43.114;12.434;2022-08-19T01:50:13;15.73;;;2.97;;
33279;SDS011;20403;43.114;12.434;2022-08-19T01:52:40;7.95;;;2.25;;
33279;SDS011;20403;43.114;12.434;2022-08-19T01:55:08;8.80;;;2.05;;
33279;SDS011;20403;43.114;12.434;2022-08-19T01:57:36;8.13;;;2.55;;
33279;SDS011;20403;43.114;12.434;2022-08-19T02:00:05;8.10;;;2.08;;
33279;SDS011;20403;43.114;12.434;2022-08-19T02:02:33;10.88;;;2.40;;
33279;SDS011;20403;43.114;12.434;2022-08-19T02:04:59;12.18;;;2.50;;
33279;SDS011;20403;43.114;12.434;2022-08-19T02:07:24;5.88;;;1.90;;
33279;SDS011;20403;43.114;12.434;2022-08-19T02:09:50;13.13;;;2.67;;
33279;SDS011;20403;43.114;12.434;2022-08-19T02:12:15;11.75;;;2.47;;
33279;SDS011;20403;43.114;12.434;2022-08-19T02:14:41;6.88;;;2.05;;
33279;SDS011;20403;43.114;12.434;2022-08-19T02:17:07;9.20;;;2.35;;
33279;SDS011;20403;43.114;12.434;2022-08-19T02:19:33;10.10;;;2.30;;
33279;SDS011;20403;43.114;12.434;2022-08-19T02:21:59;5.30;;;2.05;;
33279;SDS011;20403;43.114;12.434;2022-08-19T02:24:25;13.40;;;2.95;;
33279;SDS011;20403;43.114;12.434;2022-08-19T02:26:51;10.30;;;2.08;;
33279;SDS011;20403;43.114;12.434;2022-08-19T02:29:16;9.15;;;2.42;;
33279;SDS011;20403;43.114;12.434;2022-08-19T02:31:42;13.77;;;2.53;;
33279;SDS011;20403;43.114;12.434;2022-08-19T02:34:07;9.98;;;2.47;;
33279;SDS011;20403;43.114;12.434;2022-08-19T02:36:33;14.02;;;2.97;;
33279;SDS011;20403;43.114;12.434;2022-08-19T02:38:59;12.05;;;3.03;;
33279;SDS011;20403;43.114;12.434;2022-08-19T02:41:26;10.32;;;2.20;;
33279;SDS011;20403;43.114;12.434;2022-08-19T02:43:56;12.18;;;2.85;;
33279;SDS011;20403;43.114;12.434;2022-08-19T02:46:24;10.85;;;2.60;;
33279;SDS011;20403;43.114;12.434;2022-08-19T02:48:53;13.88;;;3.35;;
33279;SDS011;20403;43.114;12.434;2022-08-19T02:51:22;13.70;;;3.35;;
33279;SDS011;20403;43.114;12.434;2022-08-19T02:53:49;12.05;;;3.13;;
33279;SDS011;20403;43.114;12.434;2022-08-19T02:56:16;20.70;;;3.47;;
33279;SDS011;20403;43.114;12.434;2022-08-19T02:58:42;16.35;;;3.58;;
33279;SDS011;20403;43.114;12.434;2022-08-19T03:01:08;12.02;;;2.88;;
33279;SDS011;20403;43.114;12.434;2022-08-19T03:03:35;23.75;;;3.55;;
33279;SDS011;20403;43.114;12.434;2022-08-19T03:06:10;21.35;;;4.00;;
33279;SDS011;20403;43.114;12.434;2022-08-19T03:08:39;25.80;;;3.75;;
33279;SDS011;20403;43.114;12.434;2022-08-19T03:11:06;22.70;;;3.90;;
33279;SDS011;20403;43.114;12.434;2022-08-19T03:13:38;32.40;;;5.80;;
33279;SDS011;20403;43.114;12.434;2022-08-19T03:16:04;21.88;;;5.20;;
33279;SDS011;20403;43.114;12.434;2022-08-19T03:18:30;27.10;;;5.57;;
33279;SDS011;20403;43.114;12.434;2022-08-19T05:23:20;18.65;;;6.15;;
33279;SDS011;20403;43.114;12.434;2022-08-19T05:25:45;19.73;;;4.20;;
33279;SDS011;20403;43.114;12.434;2022-08-19T05:28:11;19.40;;;4.93;;
33279;SDS011;20403;43.114;12.434;2022-08-19T05:30:36;29.95;;;5.10;;
33279;SDS011;20403;43.114;12.434;2022-08-19T05:33:02;18.05;;;5.68;;
33279;SDS011;20403;43.114;12.434;2022-08-19T05:35:27;29.58;;;6.00;;
33279;SDS011;20403;43.114;12.434;2022-08-19T05:37:53;23.63;;;5.80;;
33279;SDS011;20403;43.114;12.434;2022-08-19T05:40:19;21.92;;;5.60;;
33279;SDS011;20403;43.114;12.434;2022-08-19T05:42:45;27.27;;;6.00;;
33279;SDS011;20403;43.114;12.434;2022-08-19T05:45:11;22.45;;;5.13;;
33279;SDS011;20403;43.114;12.434;2022-08-19T06:00:32;21.83;;;7.55;;
33279;SDS011;20403;43.114;12.434;2022-08-19T06:02:58;24.95;;;6.00;;
33279;SDS011;20403;43.114;12.434;2022-08-19T06:05:28;26.00;;;6.85;;
33279;SDS011;20403;43.114;12.434;2022-08-19T06:07:56;29.48;;;6.63;;
33279;SDS011;20403;43.114;12.434;2022-08-19T06:10:23;29.05;;;6.05;;
33279;SDS011;20403;43.114;12.434;2022-08-19T06:12:49;24.58;;;6.32;;
33279;SDS011;20403;43.114;12.434;2022-08-19T06:15:15;31.08;;;6.30;;
33279;SDS011;20403;43.114;12.434;2022-08-19T06:17:40;32.53;;;6.30;;
33279;SDS011;20403;43.114;12.434;2022-08-19T06:20:09;24.23;;;5.80;;
33279;SDS011;20403;43.114;12.434;2022-08-19T06:22:42;30.58;;;6.68;;
33279;SDS011;20403;43.114;12.434;2022-08-19T06:25:09;40.80;;;8.25;;
33279;SDS011;20403;43.114;12.434;2022-08-19T06:27:36;32.65;;;6.53;;
33279;SDS011;20403;43.114;12.434;2022-08-19T06:30:02;22.52;;;5.70;;
33279;SDS011;20403;43.114;12.434;2022-08-19T06:32:29;30.65;;;6.25;;
33279;SDS011;20403;43.114;12.434;2022-08-19T06:34:55;26.55;;;7.50;;
33279;SDS011;20403;43.114;12.434;2022-08-19T06:37:20;32.95;;;6.85;;
33279;SDS011;20403;43.114;12.434;2022-08-19T06:39:46;22.88;;;5.07;;
33279;SDS011;20403;43.114;12.434;2022-08-19T06:42:13;22.88;;;4.88;;
33279;SDS011;20403;43.114;12.434;2022-08-19T06:44:41;25.83;;;5.38;;
33279;SDS011;20403;43.114;12.434;2022-08-19T06:47:08;29.38;;;5.68;;
33279;SDS011;20403;43.114;12.434;2022-08-19T06:49:35;35.78;;;8.18;;
33279;SDS011;20403;43.114;12.434;2022-08-19T06:52:01;28.02;;;5.93;;
33279;SDS011;20403;43.114;12.434;2022-08-19T06:54:27;26.23;;;7.32;;
33279;SDS011;20403;43.114;12.434;2022-08-19T06:56:54;27.90;;;6.60;;
33279;SDS011;20403;43.114;12.434;2022-08-19T06:59:21;31.40;;;5.18;;
33279;SDS011;20403;43.114;12.434;2022-08-19T07:01:50;25.13;;;5.28;;
33279;SDS011;20403;43.114;12.434;2022-08-19T07:04:19;42.85;;;6.25;;
33279;SDS011;20403;43.114;12.434;2022-08-19T07:06:47;17.50;;;4.00;;
33279;SDS011;20403;43.114;12.434;2022-08-19T07:09:13;34.45;;;5.32;;
33279;SDS011;20403;43.114;12.434;2022-08-19T07:11:45;25.65;;;5.13;;
33279;SDS011;20403;43.114;12.434;2022-08-19T07:14:12;27.77;;;5.05;;
33279;SDS011;20403;43.114;12.434;2022-08-19T07:16:39;25.63;;;4.80;;
33279;SDS011;20403;43.114;12.434;2022-08-19T07:19:05;22.65;;;4.20;;
33279;SDS011;20403;43.114;12.434;2022-08-19T07:21:31;29.85;;;4.85;;
33279;SDS011;20403;43.114;12.434;2022-08-19T07:23:58;25.75;;;3.97;;
33279;SDS011;20403;43.114;12.434;2022-08-19T07:26:25;18.50;;;3.95;;
33279;SDS011;20403;43.114;12.434;2022-08-19T07:28:53;30.92;;;5.07;;
33279;SDS011;20403;43.114;12.434;2022-08-19T07:31:20;40.65;;;5.47;;
33279;SDS011;20403;43.114;12.434;2022-08-19T07:33:47;18.10;;;4.38;;
33279;SDS011;20403;43.114;12.434;2022-08-19T07:36:16;23.25;;;4.32;;
33279;SDS011;20403;43.114;12.434;2022-08-19T07:38:47;20.30;;;4.07;;
33279;SDS011;20403;43.114;12.434;2022-08-19T07:41:16;30.50;;;5.22;;
33279;SDS011;20403;43.114;12.434;2022-08-19T07:43:45;36.83;;;5.85;;
33279;SDS011;20403;43.114;12.434;2022-08-19T07:46:11;15.68;;;3.75;;
33279;SDS011;20403;43.114;12.434;2022-08-19T07:48:38;23.90;;;4.25;;
33279;SDS011;20403;43.114;12.434;2022-08-19T07:51:07;20.08;;;3.63;;
33279;SDS011;20403;43.114;12.434;2022-08-19T07:53:34;17.75;;;3.58;;
33279;SDS011;20403;43.114;12.434;2022-08-19T07:56:01;21.85;;;3.80;;
33279;SDS011;20403;43.114;12.434;2022-08-19T07:58:32;16.33;;;3.85;;
33279;SDS011;20403;43.114;12.434;2022-08-19T08:01:00;23.83;;;4.05;;
33279;SDS011;20403;43.114;12.434;2022-08-19T08:03:28;26.33;;;3.92;;
33279;SDS011;20403;43.114;12.434;2022-08-19T08:06:13;28.42;;;4.88;;
33279;SDS011;20403;43.114;12.434;2022-08-19T08:08:58;20.92;;;4.13;;
33279;SDS011;20403;43.114;12.434;2022-08-19T08:11:50;11.27;;;3.38;;
33279;SDS011;20403;43.114;12.434;2022-08-19T08:14:20;26.20;;;5.15;;
33279;SDS011;20403;43.114;12.434;2022-08-19T08:16:57;15.23;;;3.20;;
33279;SDS011;20403;43.114;12.434;2022-08-19T08:19:24;20.52;;;3.47;;
33279;SDS011;20403;43.114;12.434;2022-08-19T08:21:51;47.70;;;8.10;;
33279;SDS011;20403;43.114;12.434;2022-08-19T08:24:21;23.63;;;3.90;;
33279;SDS011;20403;43.114;12.434;2022-08-19T08:26:47;18.83;;;3.85;;
33279;SDS011;20403;43.114;12.434;2022-08-19T08:29:13;20.00;;;3.30;;
33279;SDS011;20403;43.114;12.434;2022-08-19T08:31:40;39.95;;;4.85;;
33279;SDS011;20403;43.114;12.434;2022-08-19T08:34:09;27.40;;;3.60;;
33279;SDS011;20403;43.114;12.434;2022-08-19T08:36:36;27.00;;;4.72;;
33279;SDS011;20403;43.114;12.434;2022-08-19T08:39:07;21.90;;;3.17;;
33279;SDS011;20403;43.114;12.434;2022-08-19T08:41:40;20.92;;;2.92;;
33279;SDS011;20403;43.114;12.434;2022-08-19T08:44:25;16.77;;;3.97;;
33279;SDS011;20403;43.114;12.434;2022-08-19T08:46:58;12.63;;;3.22;;
33279;SDS011;20403;43.114;12.434;2022-08-19T08:49:39;15.70;;;3.60;;
33279;SDS011;20403;43.114;12.434;2022-08-19T08:52:07;20.40;;;3.38;;
33279;SDS011;20403;43.114;12.434;2022-08-19T08:54:40;18.20;;;3.63;;
33279;SDS011;20403;43.114;12.434;2022-08-19T08:57:33;17.48;;;3.60;;
33279;SDS011;20403;43.114;12.434;2022-08-19T09:00:12;10.35;;;3.10;;
33279;SDS011;20403;43.114;12.434;2022-08-19T09:02:42;20.52;;;3.58;;
33279;SDS011;20403;43.114;12.434;2022-08-19T09:05:08;11.00;;;2.63;;
33279;SDS011;20403;43.114;12.434;2022-08-19T09:10:09;9.93;;;2.40;;
33279;SDS011;20403;43.114;12.434;2022-08-19T09:16:18;10.70;;;2.20;;
33279;SDS011;20403;43.114;12.434;2022-08-19T09:18:47;10.25;;;2.17;;
33279;SDS011;20403;43.114;12.434;2022-08-19T09:21:17;15.75;;;2.25;;
33279;SDS011;20403;43.114;12.434;2022-08-19T09:23:43;7.20;;;2.08;;
33279;SDS011;20403;43.114;12.434;2022-08-19T09:26:13;13.02;;;2.20;;
33279;SDS011;20403;43.114;12.434;2022-08-19T09:28:41;13.50;;;2.20;;
33279;SDS011;20403;43.114;12.434;2022-08-19T09:31:12;15.85;;;2.60;;
33279;SDS011;20403;43.114;12.434;2022-08-19T09:33:38;5.43;;;1.92;;
33279;SDS011;20403;43.114;12.434;2022-08-19T09:36:05;10.32;;;2.33;;
33279;SDS011;20403;43.114;12.434;2022-08-19T09:38:33;10.35;;;2.58;;
33279;SDS011;20403;43.114;12.434;2022-08-19T09:41:06;6.25;;;2.33;;
33279;SDS011;20403;43.114;12.434;2022-08-19T09:43:38;7.75;;;2.65;;
33279;SDS011;20403;43.114;12.434;2022-08-19T09:46:04;12.15;;;2.00;;
33279;SDS011;20403;43.114;12.434;2022-08-19T09:48:40;6.88;;;2.15;;
33279;SDS011;20403;43.114;12.434;2022-08-19T09:51:10;4.55;;;1.60;;
33279;SDS011;20403;43.114;12.434;2022-08-19T09:53:38;23.50;;;2.05;;
33279;SDS011;20403;43.114;12.434;2022-08-19T09:56:04;11.98;;;2.05;;
33279;SDS011;20403;43.114;12.434;2022-08-19T09:58:30;12.20;;;2.53;;
33279;SDS011;20403;43.114;12.434;2022-08-19T10:01:00;4.55;;;1.65;;
33279;SDS011;20403;43.114;12.434;2022-08-19T10:03:27;6.65;;;1.58;;
33279;SDS011;20403;43.114;12.434;2022-08-19T10:05:54;11.80;;;2.40;;
33279;SDS011;20403;43.114;12.434;2022-08-19T10:08:25;8.43;;;1.80;;
33279;SDS011;20403;43.114;12.434;2022-08-19T10:10:52;6.72;;;2.13;;
33279;SDS011;20403;43.114;12.434;2022-08-19T10:13:20;9.73;;;2.42;;
33279;SDS011;20403;43.114;12.434;2022-08-19T10:15:50;5.57;;;2.67;;
33279;SDS011;20403;43.114;12.434;2022-08-19T10:18:17;7.20;;;2.22;;
33279;SDS011;20403;43.114;12.434;2022-08-19T10:20:44;7.63;;;2.03;;
33279;SDS011;20403;43.114;12.434;2022-08-19T10:23:10;5.25;;;1.77;;
33279;SDS011;20403;43.114;12.434;2022-08-19T10:25:36;10.10;;;1.90;;
33279;SDS011;20403;43.114;12.434;2022-08-19T10:28:02;5.18;;;1.83;;
33279;SDS011;20403;43.114;12.434;2022-08-19T10:30:29;9.60;;;2.05;;
33279;SDS011;20403;43.114;12.434;2022-08-19T10:32:54;4.18;;;1.67;;
33279;SDS011;20403;43.114;12.434;2022-08-19T10:35:20;6.32;;;1.67;;
33279;SDS011;20403;43.114;12.434;2022-08-19T10:37:45;8.15;;;1.77;;
33279;SDS011;20403;43.114;12.434;2022-08-19T10:40:11;9.30;;;1.92;;
33279;SDS011;20403;43.114;12.434;2022-08-19T10:42:37;8.63;;;1.90;;
33279;SDS011;20403;43.114;12.434;2022-08-19T10:45:03;9.50;;;2.33;;
33279;SDS011;20403;43.114;12.434;2022-08-19T10:47:31;9.25;;;2.67;;
33279;SDS011;20403;43.114;12.434;2022-08-19T10:49:57;6.28;;;2.22;;
33279;SDS011;20403;43.114;12.434;2022-08-19T10:52:42;8.15;;;2.33;;
33279;SDS011;20403;43.114;12.434;2022-08-19T10:55:09;9.23;;;2.35;;
33279;SDS011;20403;43.114;12.434;2022-08-19T10:57:53;13.30;;;2.35;;
33279;SDS011;20403;43.114;12.434;2022-08-19T11:00:20;12.02;;;2.53;;
33279;SDS011;20403;43.114;12.434;2022-08-19T11:02:47;6.70;;;2.17;;
33279;SDS011;20403;43.114;12.434;2022-08-19T11:05:13;6.22;;;2.20;;
33279;SDS011;20403;43.114;12.434;2022-08-19T11:07:39;14.15;;;2.70;;
33279;SDS011;20403;43.114;12.434;2022-08-19T11:10:06;11.88;;;2.28;;
33279;SDS011;20403;43.114;12.434;2022-08-19T11:12:33;8.35;;;2.67;;
33279;SDS011;20403;43.114;12.434;2022-08-19T11:14:59;9.45;;;2.53;;
33279;SDS011;20403;43.114;12.434;2022-08-19T11:17:24;6.70;;;2.05;;
33279;SDS011;20403;43.114;12.434;2022-08-19T11:19:50;11.90;;;2.10;;
33279;SDS011;20403;43.114;12.434;2022-08-19T11:22:15;6.63;;;2.00;;
33279;SDS011;20403;43.114;12.434;2022-08-19T11:24:42;6.78;;;2.10;;
33279;SDS011;20403;43.114;12.434;2022-08-19T11:27:08;10.77;;;2.55;;
33279;SDS011;20403;43.114;12.434;2022-08-19T11:29:35;7.60;;;2.20;;
33279;SDS011;20403;43.114;12.434;2022-08-19T11:32:04;5.13;;;2.00;;
33279;SDS011;20403;43.114;12.434;2022-08-19T11:34:31;7.65;;;2.20;;
33279;SDS011;20403;43.114;12.434;2022-08-19T11:36:57;7.72;;;2.60;;
33279;SDS011;20403;43.114;12.434;2022-08-19T11:39:24;7.20;;;2.42;;
33279;SDS011;20403;43.114;12.434;2022-08-19T11:41:50;8.50;;;2.45;;
33279;SDS011;20403;43.114;12.434;2022-08-19T11:44:16;4.45;;;1.88;;
33279;SDS011;20403;43.114;12.434;2022-08-19T11:46:42;10.25;;;2.65;;
33279;SDS011;20403;43.114;12.434;2022-08-19T11:49:11;7.03;;;2.67;;
33279;SDS011;20403;43.114;12.434;2022-08-19T11:51:39;8.70;;;2.10;;
33279;SDS011;20403;43.114;12.434;2022-08-19T11:54:07;14.40;;;2.38;;
33279;SDS011;20403;43.114;12.434;2022-08-19T11:56:33;7.80;;;1.95;;
33279;SDS011;20403;43.114;12.434;2022-08-19T11:59:00;4.97;;;2.00;;
33279;SDS011;20403;43.114;12.434;2022-08-19T12:01:26;7.00;;;1.80;;
33279;SDS011;20403;43.114;12.434;2022-08-19T12:03:52;8.13;;;2.15;;
33279;SDS011;20403;43.114;12.434;2022-08-19T12:06:23;3.17;;;1.50;;
33279;SDS011;20403;43.114;12.434;2022-08-19T12:08:53;6.70;;;1.90;;
33279;SDS011;20403;43.114;12.434;2022-08-19T12:11:20;6.47;;;1.77;;
33279;SDS011;20403;43.114;12.434;2022-08-19T12:13:45;5.53;;;1.73;;
33279;SDS011;20403;43.114;12.434;2022-08-19T12:16:18;5.15;;;2.05;;
33279;SDS011;20403;43.114;12.434;2022-08-19T12:18:48;3.55;;;1.40;;
33279;SDS011;20403;43.114;12.434;2022-08-19T12:21:16;5.22;;;1.92;;
33279;SDS011;20403;43.114;12.434;2022-08-19T12:23:46;6.22;;;1.38;;
33279;SDS011;20403;43.114;12.434;2022-08-19T12:26:12;18.73;;;2.08;;
33279;SDS011;20403;43.114;12.434;2022-08-19T12:28:38;5.43;;;1.85;;
33279;SDS011;20403;43.114;12.434;2022-08-19T12:31:03;4.55;;;1.60;;
33279;SDS011;20403;43.114;12.434;2022-08-19T12:33:29;7.78;;;1.80;;
33279;SDS011;20403;43.114;12.434;2022-08-19T12:35:59;6.70;;;2.13;;
33279;SDS011;20403;43.114;12.434;2022-08-19T12:38:30;5.55;;;1.55;;
33279;SDS011;20403;43.114;12.434;2022-08-19T12:40:57;3.65;;;1.42;;
33279;SDS011;20403;43.114;12.434;2022-08-19T12:43:23;7.80;;;2.22;;
33279;SDS011;20403;43.114;12.434;2022-08-19T12:45:48;7.00;;;2.15;;
33279;SDS011;20403;43.114;12.434;2022-08-19T12:48:14;9.98;;;1.80;;
33279;SDS011;20403;43.114;12.434;2022-08-19T12:50:40;5.95;;;1.90;;
33279;SDS011;20403;43.114;12.434;2022-08-19T12:53:06;7.30;;;2.30;;
33279;SDS011;20403;43.114;12.434;2022-08-19T12:55:31;6.13;;;1.83;;
33279;SDS011;20403;43.114;12.434;2022-08-19T12:57:57;7.30;;;2.05;;
33279;SDS011;20403;43.114;12.434;2022-08-19T13:00:22;6.97;;;1.70;;
33279;SDS011;20403;43.114;12.434;2022-08-19T13:02:50;7.05;;;1.67;;
33279;SDS011;20403;43.114;12.434;2022-08-19T13:05:18;5.38;;;2.00;;
33279;SDS011;20403;43.114;12.434;2022-08-19T13:10:14;9.18;;;1.77;;
33279;SDS011;20403;43.114;12.434;2022-08-19T13:12:42;3.95;;;1.50;;
33279;SDS011;20403;43.114;12.434;2022-08-19T13:15:09;5.95;;;1.50;;
33279;SDS011;20403;43.114;12.434;2022-08-19T13:17:35;3.45;;;1.90;;
33279;SDS011;20403;43.114;12.434;2022-08-19T13:20:01;4.03;;;1.88;;
33279;SDS011;20403;43.114;12.434;2022-08-19T13:22:28;5.38;;;1.80;;
33279;SDS011;20403;43.114;12.434;2022-08-19T13:24:53;5.47;;;2.13;;
33279;SDS011;20403;43.114;12.434;2022-08-19T13:27:19;8.98;;;1.70;;
33279;SDS011;20403;43.114;12.434;2022-08-19T13:29:44;7.53;;;2.10;;
33279;SDS011;20403;43.114;12.434;2022-08-19T13:32:30;6.47;;;2.13;;
33279;SDS011;20403;43.114;12.434;2022-08-19T13:35:16;6.28;;;2.15;;
33279;SDS011;20403;43.114;12.434;2022-08-19T13:37:42;3.58;;;1.90;;
33279;SDS011;20403;43.114;12.434;2022-08-19T13:40:08;7.40;;;1.90;;
33279;SDS011;20403;43.114;12.434;2022-08-19T13:42:47;5.68;;;1.58;;
33279;SDS011;20403;43.114;12.434;2022-08-19T13:45:15;5.03;;;1.50;;
33279;SDS011;20403;43.114;12.434;2022-08-19T13:47:44;5.63;;;1.90;;
33279;SDS011;20403;43.114;12.434;2022-08-19T13:50:22;6.40;;;1.90;;
33279;SDS011;20403;43.114;12.434;2022-08-19T13:52:50;6.18;;;2.03;;
33279;SDS011;20403;43.114;12.434;2022-08-19T13:55:16;6.05;;;1.77;;
33279;SDS011;20403;43.114;12.434;2022-08-19T13:57:42;5.78;;;2.20;;
33279;SDS011;20403;43.114;12.434;2022-08-19T14:00:12;6.65;;;2.00;;
33279;SDS011;20403;43.114;12.434;2022-08-19T14:02:42;6.38;;;2.38;;
33279;SDS011;20403;43.114;12.434;2022-08-19T14:05:09;7.43;;;2.78;;
33279;SDS011;20403;43.114;12.434;2022-08-19T14:07:37;10.85;;;2.83;;
33279;SDS011;20403;43.114;12.434;2022-08-19T14:10:03;7.38;;;2.03;;
33279;SDS011;20403;43.114;12.434;2022-08-19T14:12:31;20.27;;;3.03;;
33279;SDS011;20403;43.114;12.434;2022-08-19T14:14:57;13.10;;;2.60;;
33279;SDS011;20403;43.114;12.434;2022-08-19T14:17:23;8.77;;;2.03;;
33279;SDS011;20403;43.114;12.434;2022-08-19T14:19:49;9.60;;;2.15;;
33279;SDS011;20403;43.114;12.434;2022-08-19T14:24:45;16.95;;;2.60;;
33279;SDS011;20403;43.114;12.434;2022-08-19T14:27:12;11.50;;;2.47;;
33279;SDS011;20403;43.114;12.434;2022-08-19T14:29:37;11.90;;;2.58;;
33279;SDS011;20403;43.114;12.434;2022-08-19T14:32:02;11.90;;;2.28;;
33279;SDS011;20403;43.114;12.434;2022-08-19T14:34:28;6.28;;;1.88;;
33279;SDS011;20403;43.114;12.434;2022-08-19T14:36:56;4.93;;;1.83;;
33279;SDS011;20403;43.114;12.434;2022-08-19T14:39:22;4.90;;;1.70;;
33279;SDS011;20403;43.114;12.434;2022-08-19T14:41:48;5.57;;;1.48;;
33279;SDS011;20403;43.114;12.434;2022-08-19T14:44:13;6.95;;;1.88;;
33279;SDS011;20403;43.114;12.434;2022-08-19T14:46:39;5.20;;;2.03;;
33279;SDS011;20403;43.114;12.434;2022-08-19T14:49:05;5.57;;;1.83;;
33279;SDS011;20403;43.114;12.434;2022-08-19T14:51:31;7.82;;;1.83;;
33279;SDS011;20403;43.114;12.434;2022-08-19T14:53:56;5.40;;;1.92;;
33279;SDS011;20403;43.114;12.434;2022-08-19T14:56:23;7.28;;;2.20;;
33279;SDS011;20403;43.114;12.434;2022-08-19T14:58:51;8.27;;;2.60;;
33279;SDS011;20403;43.114;12.434;2022-08-19T15:01:17;9.95;;;2.55;;
33279;SDS011;20403;43.114;12.434;2022-08-19T15:03:47;6.22;;;1.70;;
33279;SDS011;20403;43.114;12.434;2022-08-19T15:06:13;14.55;;;2.85;;
33279;SDS011;20403;43.114;12.434;2022-08-19T15:08:41;9.32;;;2.30;;
33279;SDS011;20403;43.114;12.434;2022-08-19T15:11:12;9.20;;;2.05;;
33279;SDS011;20403;43.114;12.434;2022-08-19T15:13:41;10.38;;;2.63;;
33279;SDS011;20403;43.114;12.434;2022-08-19T15:16:07;10.07;;;2.20;;
33279;SDS011;20403;43.114;12.434;2022-08-19T15:18:33;5.63;;;1.67;;
33279;SDS011;20403;43.114;12.434;2022-08-19T15:21:00;5.93;;;2.20;;
33279;SDS011;20403;43.114;12.434;2022-08-19T15:23:26;10.15;;;2.38;;
33279;SDS011;20403;43.114;12.434;2022-08-19T15:25:52;6.15;;;1.80;;
33279;SDS011;20403;43.114;12.434;2022-08-19T15:28:20;7.18;;;2.22;;
33279;SDS011;20403;43.114;12.434;2022-08-19T15:30:46;7.30;;;2.03;;
33279;SDS011;20403;43.114;12.434;2022-08-19T15:33:11;10.75;;;2.45;;
33279;SDS011;20403;43.114;12.434;2022-08-19T15:35:42;5.88;;;2.42;;
33279;SDS011;20403;43.114;12.434;2022-08-19T15:38:08;8.40;;;2.17;;
33279;SDS011;20403;43.114;12.434;2022-08-19T15:40:35;5.20;;;1.88;;
33279;SDS011;20403;43.114;12.434;2022-08-19T15:43:00;10.30;;;2.53;;
33279;SDS011;20403;43.114;12.434;2022-08-19T15:45:26;11.40;;;2.30;;
33279;SDS011;20403;43.114;12.434;2022-08-19T15:47:58;9.88;;;2.30;;
33279;SDS011;20403;43.114;12.434;2022-08-19T15:50:24;9.20;;;2.03;;
33279;SDS011;20403;43.114;12.434;2022-08-19T15:52:54;4.93;;;2.10;;
33279;SDS011;20403;43.114;12.434;2022-08-19T15:55:22;3.65;;;1.85;;
33279;SDS011;20403;43.114;12.434;2022-08-19T15:57:50;8.00;;;2.22;;
33279;SDS011;20403;43.114;12.434;2022-08-19T16:00:34;8.25;;;2.67;;
33279;SDS011;20403;43.114;12.434;2022-08-19T16:03:18;5.30;;;2.00;;
33279;SDS011;20403;43.114;12.434;2022-08-19T16:06:02;5.28;;;1.80;;
33279;SDS011;20403;43.114;12.434;2022-08-19T16:08:47;9.93;;;2.13;;
33279;SDS011;20403;43.114;12.434;2022-08-19T16:11:15;12.07;;;2.47;;
33279;SDS011;20403;43.114;12.434;2022-08-19T16:13:44;7.88;;;2.58;;
33279;SDS011;20403;43.114;12.434;2022-08-19T16:16:12;7.97;;;2.47;;
33279;SDS011;20403;43.114;12.434;2022-08-19T16:18:38;6.80;;;2.33;;
33279;SDS011;20403;43.114;12.434;2022-08-19T16:21:04;7.25;;;1.70;;
33279;SDS011;20403;43.114;12.434;2022-08-19T16:23:32;5.53;;;2.10;;
33279;SDS011;20403;43.114;12.434;2022-08-19T16:25:59;10.20;;;2.10;;
33279;SDS011;20403;43.114;12.434;2022-08-19T16:28:25;10.95;;;1.98;;
33279;SDS011;20403;43.114;12.434;2022-08-19T16:30:50;9.95;;;2.17;;
33279;SDS011;20403;43.114;12.434;2022-08-19T16:33:16;8.07;;;2.00;;
33279;SDS011;20403;43.114;12.434;2022-08-19T16:35:41;7.05;;;2.20;;
33279;SDS011;20403;43.114;12.434;2022-08-19T16:38:07;8.52;;;2.05;;
33279;SDS011;20403;43.114;12.434;2022-08-19T16:40:33;4.28;;;1.67;;
33279;SDS011;20403;43.114;12.434;2022-08-19T16:42:59;7.22;;;2.08;;
33279;SDS011;20403;43.114;12.434;2022-08-19T16:45:26;6.20;;;1.60;;
33279;SDS011;20403;43.114;12.434;2022-08-19T16:47:52;4.78;;;1.10;;
33279;SDS011;20403;43.114;12.434;2022-08-19T16:50:17;6.43;;;1.25;;
33279;SDS011;20403;43.114;12.434;2022-08-19T16:52:45;3.72;;;1.20;;
33279;SDS011;20403;43.114;12.434;2022-08-19T16:55:12;4.28;;;1.10;;
33279;SDS011;20403;43.114;12.434;2022-08-19T16:57:38;3.10;;;1.50;;
33279;SDS011;20403;43.114;12.434;2022-08-19T17:00:04;3.10;;;1.20;;